Time;durP1;ratioP1;P1;durP2;ratioP2;P2;SDS_P1;SDS_P2;PMS_P1;PMS_P2;Temp;Humidity;BMP_temperature;BMP_pressure;BME280_temperature;BME280_humidity;BME280_pressure;Samples;Min_cycle;Max_cycle;Signal;HPM_P1;HPM_P2
2023/01/29 00:01:45;;;;;;;7.20;6.60;;;;;;;22.22;29.78;95069.81;6082835;28;108977;-61
2023/01/29 00:04:48;;;;;;;7.13;6.53;;;;;;;22.21;30.11;95070.91;6086830;28;109120;-61
2023/01/29 00:07:53;;;;;;;6.47;5.97;;;;;;;22.22;29.58;95065.25;6085369;28;110136;-61
2023/01/29 00:11:01;;;;;;;6.50;5.90;;;;;;;22.21;29.59;95070.91;6078907;28;110705;-61
2023/01/29 00:14:04;;;;;;;6.30;5.80;;;;;;;22.21;30.05;95084.22;6090972;28;109965;-61
2023/01/29 00:17:10;;;;;;;6.90;6.40;;;;;;;22.22;29.73;95075.13;6090596;28;109229;-61
2023/01/29 00:20:14;;;;;;;6.70;6.07;;;;;;;22.20;30.06;95074.66;6090871;28;109000;-61
2023/01/29 00:23:19;;;;;;;7.00;6.40;;;;;;;22.22;30.07;95096.47;6080423;28;109169;-61
2023/01/29 00:26:23;;;;;;;7.20;6.60;;;;;;;22.22;29.62;95093.78;6090661;28;109354;-61
2023/01/29 00:29:26;;;;;;;7.00;6.40;;;;;;;22.19;30.07;95092.53;6089392;28;109256;-61
2023/01/29 00:32:29;;;;;;;6.70;6.20;;;;;;;22.24;29.78;95100.38;6084090;28;110690;-61
2023/01/29 00:35:32;;;;;;;5.97;5.57;;;;;;;22.23;29.80;95104.16;6085111;28;109096;-61
2023/01/29 00:38:39;;;;;;;6.27;5.77;;;;;;;22.22;29.65;95097.25;6088247;28;110162;-61
2023/01/29 00:45:03;;;;;;;6.10;5.60;;;;;;;22.18;29.64;95095.47;6079001;28;109299;-61
2023/01/29 00:48:06;;;;;;;5.70;5.30;;;;;;;22.20;29.66;95101.31;6090365;28;109391;-61
2023/01/29 00:51:11;;;;;;;6.40;5.90;;;;;;;22.20;29.48;95099.44;6090419;28;109004;-61
2023/01/29 00:54:16;;;;;;;5.90;5.40;;;;;;;22.22;29.63;95099.91;6090588;28;109656;-61
2023/01/29 00:57:19;;;;;;;6.33;5.83;;;;;;;22.22;30.02;95104.47;6079405;28;109968;-61
2023/01/29 01:00:23;;;;;;;6.97;6.37;;;;;;;22.21;29.60;95106.34;6089660;28;108910;-61
2023/01/29 01:03:40;;;;;;;6.43;5.93;;;;;;;22.10;29.66;95087.13;6090059;28;109278;-61
2023/01/29 01:06:43;;;;;;;6.30;5.80;;;;;;;22.09;29.67;95082.91;6084029;28;109183;-61
2023/01/29 01:13:10;;;;;;;6.43;5.83;;;;;;;22.24;30.04;95099.59;6090581;28;109447;-61
2023/01/29 01:16:17;;;;;;;6.17;5.67;;;;;;;22.16;29.84;95092.31;6090037;28;109028;-61
2023/01/29 01:19:20;;;;;;;6.30;5.73;;;;;;;22.17;30.15;95078.69;6080090;28;111074;-61
2023/01/29 01:22:23;;;;;;;5.90;5.40;;;;;;;22.21;30.03;95089.56;6089523;28;109164;-61
2023/01/29 01:25:28;;;;;;;6.13;5.63;;;;;;;22.23;29.66;95088.16;6089835;28;110247;-62
2023/01/29 01:28:31;;;;;;;6.23;5.67;;;;;;;22.24;30.17;95084.41;6090000;28;110302;-62
2023/01/29 01:31:37;;;;;;;5.70;5.30;;;;;;;22.21;30.11;95090.34;6078347;28;110085;-62
2023/01/29 01:34:40;;;;;;;5.63;5.13;;;;;;;22.23;29.60;95092.69;6089303;28;110112;-62
2023/01/29 01:37:43;;;;;;;5.50;5.10;;;;;;;22.24;30.12;95096.94;6089461;28;108877;-62
2023/01/29 01:40:48;;;;;;;6.23;5.73;;;;;;;22.20;29.84;95095.97;6084053;28;110127;-62
2023/01/29 01:43:54;;;;;;;6.00;5.50;;;;;;;22.21;29.48;95097.56;6084593;28;109314;-62
2023/01/29 01:46:57;;;;;;;4.90;4.50;;;;;;;22.18;30.06;95092.81;6089365;28;109168;-62
2023/01/29 01:50:06;;;;;;;5.33;4.93;;;;;;;22.22;29.82;95096.47;6089347;28;109734;-62
2023/01/29 01:53:12;;;;;;;5.20;4.80;;;;;;;22.21;29.96;95105.56;6079830;28;110049;-62
2023/01/29 01:56:21;;;;;;;5.37;4.93;;;;;;;22.20;30.13;95106.66;6088527;28;109457;-62
2023/01/29 01:59:26;;;;;;;5.37;4.93;;;;;;;22.21;30.06;95105.56;6088986;28;108984;-62
2023/01/29 02:09:33;;;;;;;6.07;5.57;;;;;;;22.22;29.63;95110.56;6088394;28;109403;-62
2023/01/29 02:12:38;;;;;;;5.50;5.00;;;;;;;22.22;29.70;95107.91;6087213;28;109082;-62
2023/01/29 02:15:47;;;;;;;5.13;4.73;;;;;;;22.24;30.03;95104.94;6078045;28;109555;-62
2023/01/29 02:18:51;;;;;;;5.23;4.83;;;;;;;22.23;29.63;95114.81;6088404;28;109092;-62
2023/01/29 02:22:28;;;;;;;5.30;4.90;;;;;;;22.21;29.64;95110.88;6089244;28;109935;-62
2023/01/29 02:26:04;;;;;;;5.30;4.90;;;;;;;22.24;29.96;95118.25;6085867;28;109139;-62
2023/01/29 02:29:23;;;;;;;4.97;4.57;;;;;;;22.23;30.07;95119.34;6081826;28;110240;-62
2023/01/29 02:32:34;;;;;;;5.10;4.70;;;;;;;22.23;29.88;95116.69;6075598;28;109066;-61
2023/01/29 02:35:43;;;;;;;4.77;4.37;;;;;;;22.22;29.88;95126.56;6087595;28;109319;-61
2023/01/29 02:38:55;;;;;;;4.53;4.13;;;;;;;22.23;29.95;95124.69;6077922;28;109287;-62
2023/01/29 02:42:02;;;;;;;5.00;4.60;;;;;;;22.27;29.54;95125.66;6088076;28;110140;-62
2023/01/29 02:45:13;;;;;;;4.70;4.40;;;;;;;22.23;30.06;95130.81;6088423;28;110283;-62
2023/01/29 02:48:22;;;;;;;5.27;4.80;;;;;;;22.26;29.51;95140.06;6086943;28;109290;-62
2023/01/29 02:51:35;;;;;;;4.80;4.40;;;;;;;22.27;29.68;95144.31;6072111;28;112993;-63
2023/01/29 02:54:45;;;;;;;4.67;4.33;;;;;;;22.21;29.92;95130.31;6086570;28;110032;-63
2023/01/29 02:57:51;;;;;;;5.57;5.07;;;;;;;22.18;29.74;95135.44;6087931;28;110055;-62
2023/01/29 03:01:00;;;;;;;5.00;4.60;;;;;;;22.28;29.51;95143.22;6077471;28;109170;-62
2023/01/29 03:04:08;;;;;;;5.03;4.63;;;;;;;22.22;29.89;95136.44;6088250;28;108766;-62
2023/01/29 03:07:39;;;;;;;4.97;4.57;;;;;;;22.24;29.87;95134.25;6087144;28;109284;-62
2023/01/29 03:10:43;;;;;;;5.23;4.83;;;;;;;22.26;29.42;95140.06;6087963;28;110262;-62
2023/01/29 03:13:53;;;;;;;4.90;4.50;;;;;;;22.27;29.84;95137.09;6063548;28;108884;-62
2023/01/29 03:16:58;;;;;;;4.93;4.53;;;;;;;22.24;29.89;95135.03;6087995;28;109706;-61
2023/01/29 03:20:03;;;;;;;5.13;4.73;;;;;;;22.27;29.85;95136.31;6087034;28;109144;-61
2023/01/29 03:23:14;;;;;;;5.30;4.90;;;;;;;22.26;29.67;95142.72;6082343;28;109186;-61
2023/01/29 03:33:10;;;;;;;4.47;4.13;;;;;;;22.27;29.54;95146.97;6086643;28;109325;-61
2023/01/29 03:36:18;;;;;;;5.43;5.00;;;;;;;22.28;29.51;95144.00;6077458;28;109205;-61
2023/01/29 03:39:22;;;;;;;4.20;3.90;;;;;;;22.21;29.80;95138.31;6086767;28;109948;-61
2023/01/29 03:42:32;;;;;;;5.10;4.70;;;;;;;22.27;30.19;95147.75;6087699;28;109384;-61
2023/01/29 03:45:42;;;;;;;4.90;4.50;;;;;;;22.27;29.91;95152.31;6086978;28;108979;-61
2023/01/29 03:48:53;;;;;;;4.60;4.30;;;;;;;22.28;29.52;95151.22;6086720;28;109954;-61
2023/01/29 03:52:01;;;;;;;4.93;4.53;;;;;;;22.19;29.78;95142.38;6091498;28;109473;-61
2023/01/29 03:55:10;;;;;;;5.60;4.80;;;;;;;22.24;30.05;95140.38;6091421;28;109640;-61
2023/01/29 03:58:25;;;;;;;4.77;4.37;;;;;;;22.28;30.05;95144.00;6080892;28;110460;-61
2023/01/29 04:01:34;;;;;;;4.23;3.93;;;;;;;22.28;30.01;95146.66;6087543;28;109034;-61
2023/01/29 04:04:41;;;;;;;3.93;3.63;;;;;;;22.30;29.91;95149.03;6091570;28;109510;-62
2023/01/29 04:07:45;;;;;;;4.23;3.93;;;;;;;22.27;29.94;95141.66;6087279;28;110172;-61
2023/01/29 04:10:51;;;;;;;4.37;4.07;;;;;;;22.29;29.49;95147.44;6079127;28;109126;-61
2023/01/29 04:13:57;;;;;;;4.20;3.90;;;;;;;22.28;29.70;95153.88;6091031;28;110136;-61
2023/01/29 04:17:03;;;;;;;4.10;3.80;;;;;;;22.22;29.58;95147.09;6091122;28;109305;-61
2023/01/29 04:20:11;;;;;;;4.00;3.70;;;;;;;22.28;29.69;95160.00;6081671;28;110124;-62
2023/01/29 04:23:22;;;;;;;4.13;3.83;;;;;;;22.30;29.79;95162.34;6090674;28;110221;-61
2023/01/29 04:26:38;;;;;;;3.80;3.50;;;;;;;22.28;29.44;95156.53;6091333;28;112011;-61
2023/01/29 04:29:56;;;;;;;4.43;4.10;;;;;;;22.23;29.55;95146.81;6090196;28;111044;-61
2023/01/29 04:33:08;;;;;;;4.27;3.87;;;;;;;22.30;29.35;95162.34;6079231;28;110187;-61
2023/01/29 04:36:26;;;;;;;4.60;4.27;;;;;;;22.28;29.61;95165.31;6090990;28;108956;-61
2023/01/29 04:39:34;;;;;;;4.60;4.20;;;;;;;22.31;29.88;95154.06;6090310;28;109813;-61
2023/01/29 04:42:44;;;;;;;4.00;3.70;;;;;;;22.28;29.43;95160.00;6085185;28;110406;-61
2023/01/29 04:46:04;;;;;;;4.20;3.80;;;;;;;22.27;29.75;95165.63;6087866;28;110191;-61
2023/01/29 04:49:19;;;;;;;4.00;3.70;;;;;;;22.23;29.77;95154.00;6090515;28;109440;-62
2023/01/29 04:52:38;;;;;;;4.13;3.83;;;;;;;22.30;29.91;95170.34;6090074;28;109177;-62
2023/01/29 04:55:47;;;;;;;4.30;4.00;;;;;;;22.26;29.42;95167.50;6078648;28;108986;-62
2023/01/29 04:58:55;;;;;;;3.90;3.60;;;;;;;22.31;30.03;95170.06;6090329;28;109292;-62
2023/01/29 05:02:00;;;;;;;3.90;3.60;;;;;;;22.31;29.51;95171.94;6089721;28;109054;-61
2023/01/29 05:05:05;;;;;;;3.80;3.50;;;;;;;22.31;29.74;95171.94;6085653;28;109083;-61
2023/01/29 05:08:16;;;;;;;3.53;3.30;;;;;;;22.32;29.76;95173.50;6084772;28;109030;-62
2023/01/29 05:11:20;;;;;;;3.30;3.10;;;;;;;22.29;29.92;95171.44;6082501;28;109473;-62
2023/01/29 05:14:29;;;;;;;3.50;3.30;;;;;;;22.28;29.88;95185.88;6086155;28;110017;-61
2023/01/29 05:17:32;;;;;;;4.40;4.10;;;;;;;22.31;29.76;95175.38;6079098;28;109276;-60
2023/01/29 05:20:38;;;;;;;4.30;4.00;;;;;;;22.31;29.51;95179.94;6089494;28;110548;-61
2023/01/29 05:23:52;;;;;;;3.90;3.60;;;;;;;22.31;29.41;95177.25;6090189;28;110083;-61
2023/01/29 05:30:18;;;;;;;3.40;3.20;;;;;;;22.31;29.39;95193.25;6078505;28;109098;-61
2023/01/29 05:33:23;;;;;;;3.67;3.37;;;;;;;22.27;29.63;95192.28;6089793;28;110190;-62
2023/01/29 05:36:26;;;;;;;3.27;3.07;;;;;;;22.33;29.23;95196.41;6089734;28;109027;-61
2023/01/29 05:39:33;;;;;;;3.47;3.17;;;;;;;22.32;29.47;95197.50;6083959;28;109129;-62
2023/01/29 05:42:36;;;;;;;3.90;3.60;;;;;;;22.26;29.36;95190.72;6087150;28;109377;-61
2023/01/29 05:45:39;;;;;;;2.93;2.73;;;;;;;22.27;29.92;95197.63;6088986;28;112469;-61
2023/01/29 05:48:42;;;;;;;3.33;3.13;;;;;;;22.31;29.91;95201.25;6089409;28;108997;-61
2023/01/29 05:51:47;;;;;;;3.13;2.93;;;;;;;22.29;29.38;95198.91;6079248;28;109650;-61
2023/01/29 05:54:51;;;;;;;3.10;2.90;;;;;;;22.31;29.41;95203.91;6089275;28;110680;-61
2023/01/29 05:57:54;;;;;;;3.47;3.17;;;;;;;22.30;29.96;95199.69;6088898;28;109001;-61
2023/01/29 06:01:13;;;;;;;3.27;3.07;;;;;;;22.24;29.51;95206.22;6086480;28;108949;-61
2023/01/29 06:04:16;;;;;;;3.23;3.00;;;;;;;22.30;29.48;95221.00;6078256;28;110183;-61
2023/01/29 06:07:23;;;;;;;3.20;3.00;;;;;;;22.28;29.92;95223.97;6088852;28;110074;-62
2023/01/29 06:10:27;;;;;;;3.20;3.00;;;;;;;22.30;29.49;95229.00;6087631;28;109524;-62
2023/01/29 06:13:30;;;;;;;3.30;3.10;;;;;;;22.27;30.05;95232.28;6083331;28;109684;-61
2023/01/29 06:16:36;;;;;;;3.10;2.90;;;;;;;22.24;29.51;95231.00;6079039;28;109104;-62
2023/01/29 06:19:39;;;;;;;3.20;3.00;;;;;;;22.26;29.75;95228.03;6087897;28;109580;-61
2023/01/29 06:22:42;;;;;;;3.60;3.30;;;;;;;22.10;29.60;95217.72;6087875;28;109942;-61
2023/01/29 06:25:46;;;;;;;2.63;2.30;;;;;;;22.19;29.62;95233.81;6076609;28;109289;-61
2023/01/29 06:28:49;;;;;;;3.00;2.80;;;;;;;22.27;29.95;95242.94;6089024;28;109155;-61
2023/01/29 06:31:53;;;;;;;2.90;2.70;;;;;;;22.22;30.10;95246.53;6088446;28;110215;-60
2023/01/29 06:34:56;;;;;;;3.20;2.90;;;;;;;22.24;30.19;95255.00;6087909;28;109059;-61
2023/01/29 06:37:59;;;;;;;3.47;2.60;;;;;;;22.20;30.06;95255.91;6077931;28;109102;-61
2023/01/29 06:41:10;;;;;;;3.77;3.47;;;;;;;22.11;30.04;95250.50;6087827;28;109113;-60
2023/01/29 06:44:13;;;;;;;3.37;3.07;;;;;;;22.21;30.31;95265.47;6088614;28;110295;-61
2023/01/29 06:47:16;;;;;;;3.27;3.07;;;;;;;22.25;29.88;95263.78;6083112;28;109397;-61
2023/01/29 06:50:19;;;;;;;3.17;2.70;;;;;;;22.27;29.96;95266.94;6081938;28;109155;-61
2023/01/29 06:53:23;;;;;;;3.83;3.50;;;;;;;22.31;29.72;95273.25;6087303;28;109279;-61
2023/01/29 06:56:30;;;;;;;4.20;2.80;;;;;;;22.29;29.74;95268.22;6087720;28;109014;-61
2023/01/29 06:59:33;;;;;;;3.07;2.87;;;;;;;22.31;29.79;95275.91;6078010;28;111393;-60
2023/01/29 07:02:36;;;;;;;4.13;3.43;;;;;;;22.07;30.14;95273.50;6087267;28;109107;-66
2023/01/29 07:05:39;;;;;;;4.83;3.90;;;;;;;21.81;31.01;95255.34;6088508;28;112318;-69
2023/01/29 07:08:42;;;;;;;4.90;4.40;;;;;;;21.85;30.92;95282.25;6088780;28;109346;-67
2023/01/29 07:11:47;;;;;;;10.40;5.60;;;;;;;21.70;29.89;95277.97;6077558;28;109464;-66
2023/01/29 07:14:52;;;;;;;7.23;4.93;;;;;;;21.72;29.51;95285.66;6088223;28;109137;-69
2023/01/29 07:17:59;;;;;;;8.20;4.90;;;;;;;21.71;29.67;95281.44;6068061;28;109646;-67
2023/01/29 07:21:06;;;;;;;8.37;5.50;;;;;;;21.67;29.62;95283.88;6083971;28;109241;-65
2023/01/29 07:24:09;;;;;;;8.37;4.80;;;;;;;21.53;29.45;95264.47;6080217;28;110237;-68
2023/01/29 07:27:13;;;;;;;6.90;5.33;;;;;;;21.66;29.54;95292.16;6084844;28;109021;-67
2023/01/29 07:30:17;;;;;;;7.30;6.30;;;;;;;21.37;29.26;95305.78;6078331;28;110080;-62
2023/01/29 07:33:21;;;;;;;7.80;5.50;;;;;;;20.89;28.71;95292.72;6077448;28;109694;-63
2023/01/29 07:36:38;;;;;;;6.97;6.37;;;;;;;20.31;28.37;95296.53;6085772;28;108897;-62
2023/01/29 07:39:41;;;;;;;7.20;6.00;;;;;;;20.13;27.95;95302.59;6087806;28;109206;-61
2023/01/29 07:42:45;;;;;;;6.60;6.00;;;;;;;19.89;28.04;95296.56;6086208;28;109069;-61
2023/01/29 07:45:48;;;;;;;6.60;6.10;;;;;;;19.63;27.81;95296.84;6076951;28;109105;-60
2023/01/29 07:48:54;;;;;;;7.60;6.47;;;;;;;19.36;28.27;95297.41;6086510;28;110466;-62
2023/01/29 07:51:57;;;;;;;7.13;6.60;;;;;;;19.35;28.00;95300.34;6087710;28;109367;-61
2023/01/29 07:55:00;;;;;;;7.20;6.60;;;;;;;19.39;27.72;95307.44;6088242;28;109863;-62
2023/01/29 07:58:05;;;;;;;6.73;6.23;;;;;;;19.35;27.87;95310.94;6076758;28;109049;-62
2023/01/29 08:01:10;;;;;;;7.23;6.43;;;;;;;19.56;30.00;95307.03;6087664;28;108806;-62
2023/01/29 08:04:13;;;;;;;7.80;5.70;;;;;;;20.26;29.29;95315.22;6087410;28;109245;-66
2023/01/29 08:07:18;;;;;;;6.83;6.30;;;;;;;20.65;27.34;95319.44;6077507;28;109334;-62
2023/01/29 08:10:23;;;;;;;5.93;5.40;;;;;;;20.89;27.89;95306.81;6087165;28;109179;-62
2023/01/29 08:13:27;;;;;;;6.97;6.30;;;;;;;21.07;27.61;95315.06;6086772;28;109744;-63
2023/01/29 08:16:30;;;;;;;6.87;6.10;;;;;;;21.16;27.82;95316.75;6087305;28;110142;-61
2023/01/29 08:19:33;;;;;;;9.40;6.17;;;;;;;21.19;29.33;95315.41;6075514;28;109056;-62
2023/01/29 08:22:37;;;;;;;6.40;5.80;;;;;;;21.33;28.33;95316.19;6087672;28;108824;-62
2023/01/29 08:25:40;;;;;;;6.97;6.37;;;;;;;21.41;28.61;95322.72;6087224;28;109384;-62
2023/01/29 08:28:45;;;;;;;7.17;6.00;;;;;;;21.43;28.61;95325.88;6087237;28;109389;-62
2023/01/29 08:31:48;;;;;;;7.30;6.70;;;;;;;21.43;28.27;95323.22;6078666;28;109268;-62
2023/01/29 08:34:51;;;;;;;6.80;6.20;;;;;;;21.45;28.46;95327.16;6090885;28;110088;-62
2023/01/29 08:37:58;;;;;;;7.10;6.20;;;;;;;21.47;28.48;95332.97;6091415;28;109069;-62
2023/01/29 08:41:01;;;;;;;6.13;5.50;;;;;;;21.46;28.49;95326.09;6085811;28;109172;-62
2023/01/29 08:44:06;;;;;;;6.83;6.33;;;;;;;21.51;28.50;95339.31;6085481;28;110116;-63
2023/01/29 08:47:09;;;;;;;6.43;5.80;;;;;;;21.64;28.89;95339.59;6090578;28;109331;-68
2023/01/29 08:50:12;;;;;;;6.67;6.17;;;;;;;21.65;29.04;95343.84;6089988;28;110095;-68
2023/01/29 08:53:15;;;;;;;6.57;6.07;;;;;;;21.70;29.15;95341.91;6081045;28;109272;-68
2023/01/29 08:56:18;;;;;;;7.60;6.90;;;;;;;21.74;28.91;95347.41;6090869;28;109080;-67
2023/01/29 08:59:23;;;;;;;7.37;6.67;;;;;;;21.76;28.90;95346.03;6090927;28;109170;-67
2023/01/29 09:02:27;;;;;;;8.03;7.30;;;;;;;21.79;29.12;95356.09;6091216;28;109225;-67
2023/01/29 09:05:30;;;;;;;8.33;7.53;;;;;;;21.80;28.69;95357.66;6080215;28;110198;-67
2023/01/29 09:08:35;;;;;;;8.00;7.33;;;;;;;21.81;29.02;95367.25;6090726;28;109120;-70
2023/01/29 09:11:39;;;;;;;8.07;7.37;;;;;;;21.78;29.01;95364.38;6090379;28;110191;-67
2023/01/29 09:14:43;;;;;;;7.70;7.10;;;;;;;21.78;29.09;95348.41;6089748;28;110275;-63
2023/01/29 09:17:54;;;;;;;8.93;8.13;;;;;;;21.82;28.73;95352.06;6084922;28;108876;-68
2023/01/29 09:20:57;;;;;;;8.33;7.50;;;;;;;21.84;29.27;95352.56;6089944;28;108882;-68
2023/01/29 09:24:00;;;;;;;8.40;7.70;;;;;;;21.85;29.06;95348.84;6090396;28;109545;-68
2023/01/29 09:27:03;;;;;;;7.47;6.87;;;;;;;21.86;28.71;95350.41;6080401;28;108796;-66
2023/01/29 09:30:10;;;;;;;8.57;7.87;;;;;;;21.86;29.19;95345.09;6089857;28;109141;-66
2023/01/29 09:33:16;;;;;;;7.57;6.87;;;;;;;21.84;29.25;95347.22;6089469;28;109073;-68
2023/01/29 09:36:19;;;;;;;8.87;7.93;;;;;;;21.84;29.01;95339.25;6090030;28;109321;-60
2023/01/29 09:39:22;;;;;;;7.10;6.50;;;;;;;21.94;28.72;95349.72;6079323;28;109061;-61
2023/01/29 09:42:30;;;;;;;7.50;6.80;;;;;;;22.04;28.96;95338.84;6089982;28;109563;-61
2023/01/29 09:45:35;;;;;;;7.50;6.90;;;;;;;22.11;28.84;95341.91;6089403;28;109395;-61
2023/01/29 09:48:39;;;;;;;7.87;7.27;;;;;;;22.13;28.94;95332.81;6089880;28;109602;-61
2023/01/29 09:51:48;;;;;;;7.70;7.00;;;;;;;22.17;28.93;95336.44;6078926;28;109503;-62
2023/01/29 09:54:58;;;;;;;7.80;7.10;;;;;;;22.21;28.39;95332.13;6089777;28;110067;-61
2023/01/29 09:58:10;;;;;;;8.37;7.67;;;;;;;22.19;28.50;95320.97;6089668;28;109277;-61
2023/01/29 10:01:22;;;;;;;6.53;6.03;;;;;;;22.21;28.44;95329.47;6078664;28;109122;-62
2023/01/29 10:04:55;;;;;;;7.40;6.80;;;;;;;22.21;28.44;95326.78;6089655;28;109057;-64
2023/01/29 10:08:23;;;;;;;7.43;6.83;;;;;;;22.23;28.39;95322.72;6086945;28;110206;-62
2023/01/29 10:11:38;;;;;;;6.60;6.10;;;;;;;22.23;28.59;95325.41;6088973;28;109307;-61
2023/01/29 10:14:51;;;;;;;7.07;6.47;;;;;;;22.21;28.40;95316.13;6082557;28;109590;-61
2023/01/29 10:18:08;;;;;;;7.40;6.80;;;;;;;22.26;28.64;95321.34;6089368;28;110460;-61
2023/01/29 10:21:24;;;;;;;7.27;6.57;;;;;;;22.27;28.30;95315.72;6088522;28;109253;-61
2023/01/29 10:24:37;;;;;;;6.57;5.93;;;;;;;22.30;28.66;95316.97;6076533;28;109388;-61
2023/01/29 10:27:43;;;;;;;7.03;6.43;;;;;;;22.29;28.96;95310.88;6088846;28;109692;-61
2023/01/29 10:30:49;;;;;;;6.60;6.10;;;;;;;21.98;28.90;95292.06;6084473;28;109277;-65
2023/01/29 10:33:57;;;;;;;7.00;6.50;;;;;;;21.95;29.25;95307.88;6087173;28;110058;-66
2023/01/29 10:37:17;;;;;;;7.30;6.60;;;;;;;21.77;29.79;95297.00;6075546;28;109405;-66
2023/01/29 10:40:22;;;;;;;6.97;6.37;;;;;;;21.78;29.61;95303.13;6089031;28;110605;-65
2023/01/29 10:43:37;;;;;;;7.63;6.93;;;;;;;21.75;29.87;95301.03;6073404;28;109608;-65
2023/01/29 10:47:03;;;;;;;7.03;5.97;;;;;;;21.76;30.31;95299.97;6074873;28;109663;-62
2023/01/29 10:50:19;;;;;;;9.00;7.70;;;;;;;21.74;30.34;95302.13;6086784;28;110781;-62
2023/01/29 10:53:38;;;;;;;10.87;7.40;;;;;;;21.74;30.06;95296.81;6087050;28;109118;-62
2023/01/29 10:56:59;;;;;;;7.53;6.93;;;;;;;21.72;29.78;95293.66;6086323;28;110021;-62
2023/01/29 11:00:13;;;;;;;7.40;6.80;;;;;;;21.68;29.86;95288.13;6078628;28;109064;-62
2023/01/29 11:03:18;;;;;;;7.83;7.17;;;;;;;21.64;30.21;95283.69;6087005;28;109142;-62
2023/01/29 11:06:33;;;;;;;7.07;6.37;;;;;;;21.55;30.63;95272.16;6086603;28;109747;-62
2023/01/29 11:09:42;;;;;;;7.27;6.67;;;;;;;21.59;30.45;95289.13;6075901;28;110216;-62
2023/01/29 11:12:47;;;;;;;7.67;6.97;;;;;;;21.55;30.60;95285.47;6085761;28;109211;-61
2023/01/29 11:15:52;;;;;;;7.57;6.80;;;;;;;21.56;31.01;95285.16;6087024;28;109245;-62
2023/01/29 11:18:58;;;;;;;7.33;6.63;;;;;;;21.55;31.04;95280.16;6093102;28;110307;-63
2023/01/29 11:22:03;;;;;;;7.97;7.17;;;;;;;21.63;31.05;95284.75;6076900;28;111761;-61
2023/01/29 11:25:15;;;;;;;9.67;6.90;;;;;;;21.58;31.03;95284.88;6086425;28;112076;-62
2023/01/29 11:28:36;;;;;;;6.90;6.30;;;;;;;21.48;31.21;95275.19;6086102;28;109187;-63
2023/01/29 11:31:40;;;;;;;8.10;7.40;;;;;;;21.45;31.29;95270.47;6083475;28;109664;-62
2023/01/29 11:35:00;;;;;;;7.10;6.40;;;;;;;21.39;31.30;95261.81;6079835;28;109406;-62
2023/01/29 11:38:23;;;;;;;7.60;6.90;;;;;;;21.39;31.39;95261.81;6088520;28;109971;-62
2023/01/29 11:41:26;;;;;;;7.60;7.00;;;;;;;21.37;31.03;95257.84;6087476;28;109203;-64
2023/01/29 11:44:35;;;;;;;7.40;6.80;;;;;;;21.34;31.40;95250.44;6076231;28;110338;-62
2023/01/29 11:47:39;;;;;;;7.87;7.13;;;;;;;21.34;31.41;95248.59;6087205;28;109100;-62
2023/01/29 11:50:43;;;;;;;7.70;7.00;;;;;;;21.32;31.12;95250.75;6088173;28;109621;-62
2023/01/29 11:53:52;;;;;;;7.30;6.70;;;;;;;21.32;31.22;95244.63;6086277;28;108955;-61
2023/01/29 11:56:56;;;;;;;8.30;7.43;;;;;;;21.29;31.33;95246.00;6078115;28;109038;-62
2023/01/29 12:00:05;;;;;;;8.10;7.33;;;;;;;21.28;31.25;95248.97;6084449;28;109653;-62
2023/01/29 12:03:15;;;;;;;7.00;6.40;;;;;;;21.26;31.35;95246.59;6084927;28;110046;-63
2023/01/29 12:06:21;;;;;;;7.90;7.10;;;;;;;21.26;31.18;95245.81;6080789;28;110398;-62
2023/01/29 12:09:30;;;;;;;8.00;7.30;;;;;;;21.26;31.67;95241.28;6091387;28;110041;-62
2023/01/29 12:12:38;;;;;;;7.83;6.77;;;;;;;21.27;31.26;95242.06;6092240;28;108741;-62
2023/01/29 12:15:42;;;;;;;7.10;6.40;;;;;;;21.26;31.44;95240.50;6087494;28;109118;-61
2023/01/29 12:18:51;;;;;;;8.03;7.33;;;;;;;21.27;31.37;95239.41;6080101;28;110905;-63
2023/01/29 12:22:00;;;;;;;7.90;7.20;;;;;;;21.27;31.65;95250.84;6089496;28;109300;-63
2023/01/29 12:25:18;;;;;;;9.03;8.23;;;;;;;21.27;31.81;95244.72;6088717;28;109660;-62
2023/01/29 12:28:37;;;;;;;8.30;7.53;;;;;;;21.30;31.70;95236.94;6085572;28;109777;-63
2023/01/29 12:31:48;;;;;;;9.20;8.30;;;;;;;21.31;31.90;95243.84;6085495;28;110523;-63
2023/01/29 12:34:56;;;;;;;9.50;8.47;;;;;;;21.32;32.15;95245.41;6087492;28;110030;-62
2023/01/29 12:38:07;;;;;;;10.97;9.97;;;;;;;21.26;32.25;95240.50;6090314;28;108809;-62
2023/01/29 12:41:25;;;;;;;10.70;9.70;;;;;;;21.34;32.06;95247.78;6076422;28;110531;-62
2023/01/29 12:44:33;;;;;;;11.10;10.10;;;;;;;21.34;32.08;95251.25;6088120;28;109074;-62
2023/01/29 12:47:42;;;;;;;10.67;9.60;;;;;;;21.31;32.35;95235.84;6089656;28;109395;-61
2023/01/29 12:50:49;;;;;;;13.00;11.73;;;;;;;21.33;32.45;95244.31;6084693;28;109075;-61
2023/01/29 12:54:07;;;;;;;12.23;11.23;;;;;;;21.29;32.66;95239.91;6083551;28;109569;-61
2023/01/29 12:57:20;;;;;;;14.03;12.83;;;;;;;21.31;32.43;95246.50;6087362;28;109357;-63
2023/01/29 13:00:27;;;;;;;15.20;13.87;;;;;;;21.30;32.52;95239.59;6080795;28;108969;-62
2023/01/29 13:03:39;;;;;;;15.40;13.93;;;;;;;21.22;32.57;95237.63;6077654;28;109865;-62
2023/01/29 13:06:48;;;;;;;17.17;15.63;;;;;;;21.28;32.31;95244.44;6084327;28;109405;-61
2023/01/29 13:09:59;;;;;;;17.77;16.10;;;;;;;21.26;32.69;95251.94;6090713;28;110005;-65
2023/01/29 13:13:14;;;;;;;18.57;16.87;;;;;;;21.26;32.38;95235.97;6089832;28;109466;-61
2023/01/29 13:16:21;;;;;;;20.23;18.43;;;;;;;21.25;32.20;95229.06;6078737;28;110159;-61
2023/01/29 13:19:29;;;;;;;20.77;18.90;;;;;;;21.25;32.66;95234.38;6089867;28;109097;-63
2023/01/29 13:22:38;;;;;;;23.10;21.07;;;;;;;21.26;32.51;95240.50;6097564;28;110333;-63
2023/01/29 13:25:41;;;;;;;24.83;22.47;;;;;;;21.25;32.35;95241.56;6079129;28;110819;-63
2023/01/29 13:28:46;;;;;;;24.03;21.93;;;;;;;21.26;32.43;95235.97;6084382;28;108859;-63
2023/01/29 13:31:54;;;;;;;24.90;22.60;;;;;;;21.30;32.43;95241.47;6087408;28;109973;-62
2023/01/29 13:35:00;;;;;;;24.97;22.57;;;;;;;21.35;32.45;95254.72;6088514;28;110783;-62
2023/01/29 13:38:05;;;;;;;25.90;23.60;;;;;;;21.38;32.43;95249.56;6079781;28;109429;-61
2023/01/29 13:41:08;;;;;;;24.70;22.47;;;;;;;21.35;32.68;95252.03;6089314;28;109517;-62
2023/01/29 13:44:23;;;;;;;23.10;21.10;;;;;;;21.39;32.34;95259.13;6088378;28;109446;-62
2023/01/29 13:47:28;;;;;;;24.53;22.33;;;;;;;21.42;32.80;95258.53;6087745;28;109390;-62
2023/01/29 13:50:37;;;;;;;21.97;19.97;;;;;;;21.41;33.08;95264.16;6081092;28;109279;-61
2023/01/29 13:53:54;;;;;;;21.80;19.80;;;;;;;21.39;32.93;95272.44;6089069;28;109113;-61
2023/01/29 13:57:04;;;;;;;22.27;20.10;;;;;;;21.39;33.03;95269.78;6088605;28;110200;-62
2023/01/29 14:00:59;;;;;;;21.80;19.77;;;;;;;21.37;33.04;95271.97;6078579;28;110399;-61
2023/01/29 14:04:24;;;;;;;20.70;18.90;;;;;;;21.38;33.25;95270.88;6082898;28;109636;-61
2023/01/29 14:07:49;;;;;;;20.33;18.60;;;;;;;21.36;33.60;95270.38;6087382;28;110281;-61
2023/01/29 14:11:35;;;;;;;18.70;17.00;;;;;;;21.34;33.52;95275.22;6077441;28;109697;-62
2023/01/29 14:15:03;;;;;;;18.77;17.17;;;;;;;21.35;33.43;95276.00;6089106;28;109265;-61
2023/01/29 14:18:26;;;;;;;19.30;17.60;;;;;;;21.32;33.85;95288.00;6087923;28;109363;-61
2023/01/29 14:21:31;;;;;;;18.23;16.63;;;;;;;21.33;33.89;95280.81;6087971;28;109098;-61
2023/01/29 14:24:34;;;;;;;17.03;15.53;;;;;;;21.31;33.90;95285.63;6079791;28;110223;-61
2023/01/29 14:27:37;;;;;;;17.93;16.33;;;;;;;21.33;33.78;95291.44;6086972;28;110069;-61
2023/01/29 14:30:46;;;;;;;18.07;16.47;;;;;;;21.36;33.73;95297.00;6088160;28;110055;-61
2023/01/29 14:33:53;;;;;;;16.27;14.83;;;;;;;21.34;34.21;95295.69;6076526;28;109334;-61
2023/01/29 14:36:59;;;;;;;16.00;14.60;;;;;;;21.29;34.12;95295.78;6088122;28;109134;-61
2023/01/29 14:40:18;;;;;;;16.10;14.57;;;;;;;21.25;33.98;95298.25;6087882;28;109174;-61
2023/01/29 14:43:21;;;;;;;15.00;13.70;;;;;;;21.26;33.72;95299.84;6087911;28;109133;-61
2023/01/29 14:46:52;;;;;;;15.47;14.07;;;;;;;21.25;34.20;95298.25;6078722;28;110012;-62
2023/01/29 14:49:58;;;;;;;14.73;13.43;;;;;;;21.26;34.08;95294.50;6054846;28;110329;-62
2023/01/29 14:53:09;;;;;;;14.43;13.23;;;;;;;21.20;33.61;95293.81;6088802;28;109396;-61
2023/01/29 14:56:16;;;;;;;14.33;13.10;;;;;;;21.26;33.92;95291.84;6079277;28;109277;-63